EGJA/ACI METAR and TAF weather

Enter ICAO airport designator
Station Type Date Time Source
EGJA METAR 2021/03/08 16:20 UTC NOAA

EGJA 081620Z 01007KT 9999 FEW024 06/00 Q1023


Station Type Date Time Source
EGJA Decoded METAR 2021/03/08 16:20 UTC NOAA

Alderney / Channel Island, United Kingdom (EGJA) 49-43N 002-12W
Mar 08, 2021 - 11:20 AM EST / 2021.03.08 1620 UTC
Wind: from the N (010 degrees) at 8 MPH (7 KT):0
Visibility: greater than 7 mile(s):0
Sky conditions: mostly clear
Temperature: 42 F (6 C)
Dew Point: 32 F (0 C)
Relative Humidity: 65%
Pressure (altimeter): 30.21 in. Hg (1023 hPa)
ob: EGJA 081620Z 01007KT 9999 FEW024 06/00 Q1023
cycle: 16

Station Type Date Time Source
EGJA TAF UTC NOAA

Error!

Example: see airport list